sensor_id;sensor_type;location;lat;lon;timestamp;P1;durP1;ratioP1;P2;durP2;ratioP2
51927;SDS011;37953;52.806;18.270;2023-11-21T00:00:35;16.98;;;9.15;;
51927;SDS011;37953;52.806;18.270;2023-11-21T00:03:21;18.38;;;9.60;;
51927;SDS011;37953;52.806;18.270;2023-11-21T00:05:48;16.20;;;9.15;;
51927;SDS011;37953;52.806;18.270;2023-11-21T00:08:15;18.20;;;9.80;;
51927;SDS011;37953;52.806;18.270;2023-11-21T00:10:40;27.90;;;16.80;;
51927;SDS011;37953;52.806;18.270;2023-11-21T00:13:06;31.58;;;18.70;;
51927;SDS011;37953;52.806;18.270;2023-11-21T00:15:33;27.63;;;13.02;;
51927;SDS011;37953;52.806;18.270;2023-11-21T00:17:59;21.05;;;10.55;;
51927;SDS011;37953;52.806;18.270;2023-11-21T00:20:25;20.05;;;10.02;;
51927;SDS011;37953;52.806;18.270;2023-11-21T00:22:51;18.30;;;10.30;;
51927;SDS011;37953;52.806;18.270;2023-11-21T00:25:17;17.85;;;9.48;;
51927;SDS011;37953;52.806;18.270;2023-11-21T00:27:43;26.05;;;12.52;;
51927;SDS011;37953;52.806;18.270;2023-11-21T00:30:09;23.38;;;11.65;;
51927;SDS011;37953;52.806;18.270;2023-11-21T00:32:36;21.38;;;10.85;;
51927;SDS011;37953;52.806;18.270;2023-11-21T00:35:06;20.95;;;11.40;;
51927;SDS011;37953;52.806;18.270;2023-11-21T00:37:32;21.50;;;10.65;;
51927;SDS011;37953;52.806;18.270;2023-11-21T00:39:58;17.33;;;9.30;;
51927;SDS011;37953;52.806;18.270;2023-11-21T00:42:24;16.08;;;9.43;;
51927;SDS011;37953;52.806;18.270;2023-11-21T00:44:49;14.15;;;8.45;;
51927;SDS011;37953;52.806;18.270;2023-11-21T00:47:15;14.95;;;8.45;;
51927;SDS011;37953;52.806;18.270;2023-11-21T00:49:42;13.02;;;7.55;;
51927;SDS011;37953;52.806;18.270;2023-11-21T00:52:08;15.63;;;8.48;;
51927;SDS011;37953;52.806;18.270;2023-11-21T00:54:34;16.00;;;8.15;;
51927;SDS011;37953;52.806;18.270;2023-11-21T00:57:00;15.20;;;8.25;;
51927;SDS011;37953;52.806;18.270;2023-11-21T00:59:26;15.40;;;8.68;;
51927;SDS011;37953;52.806;18.270;2023-11-21T01:01:52;16.25;;;9.07;;
51927;SDS011;37953;52.806;18.270;2023-11-21T01:04:19;12.63;;;7.93;;
51927;SDS011;37953;52.806;18.270;2023-11-21T01:06:45;14.80;;;7.53;;
51927;SDS011;37953;52.806;18.270;2023-11-21T01:09:11;13.48;;;7.68;;
51927;SDS011;37953;52.806;18.270;2023-11-21T01:11:38;12.13;;;7.50;;
51927;SDS011;37953;52.806;18.270;2023-11-21T01:14:04;12.57;;;7.75;;
51927;SDS011;37953;52.806;18.270;2023-11-21T01:16:31;14.80;;;8.57;;
51927;SDS011;37953;52.806;18.270;2023-11-21T01:19:06;13.90;;;7.78;;
51927;SDS011;37953;52.806;18.270;2023-11-21T01:21:32;11.45;;;7.25;;
51927;SDS011;37953;52.806;18.270;2023-11-21T01:23:59;9.88;;;6.03;;
51927;SDS011;37953;52.806;18.270;2023-11-21T01:26:25;12.18;;;6.65;;
51927;SDS011;37953;52.806;18.270;2023-11-21T01:28:51;11.10;;;6.82;;
51927;SDS011;37953;52.806;18.270;2023-11-21T01:31:17;19.17;;;6.50;;
51927;SDS011;37953;52.806;18.270;2023-11-21T01:33:43;10.50;;;5.70;;
51927;SDS011;37953;52.806;18.270;2023-11-21T01:36:09;11.85;;;6.30;;
51927;SDS011;37953;52.806;18.270;2023-11-21T01:38:35;13.35;;;6.60;;
51927;SDS011;37953;52.806;18.270;2023-11-21T01:41:01;11.90;;;6.70;;
51927;SDS011;37953;52.806;18.270;2023-11-21T01:43:27;11.57;;;6.05;;
51927;SDS011;37953;52.806;18.270;2023-11-21T01:45:54;25.98;;;6.15;;
51927;SDS011;37953;52.806;18.270;2023-11-21T01:48:22;25.30;;;6.35;;
51927;SDS011;37953;52.806;18.270;2023-11-21T01:50:49;7.45;;;5.20;;
51927;SDS011;37953;52.806;18.270;2023-11-21T01:53:21;7.03;;;4.65;;
51927;SDS011;37953;52.806;18.270;2023-11-21T01:55:47;7.30;;;5.05;;
51927;SDS011;37953;52.806;18.270;2023-11-21T01:58:14;6.57;;;4.32;;
51927;SDS011;37953;52.806;18.270;2023-11-21T02:00:42;23.67;;;5.43;;
51927;SDS011;37953;52.806;18.270;2023-11-21T02:03:08;6.43;;;4.60;;
51927;SDS011;37953;52.806;18.270;2023-11-21T02:05:41;6.93;;;4.47;;
51927;SDS011;37953;52.806;18.270;2023-11-21T02:08:06;6.55;;;4.78;;
51927;SDS011;37953;52.806;18.270;2023-11-21T02:10:35;8.80;;;5.72;;
51927;SDS011;37953;52.806;18.270;2023-11-21T02:13:02;7.53;;;5.38;;
51927;SDS011;37953;52.806;18.270;2023-11-21T02:15:29;7.22;;;5.03;;
51927;SDS011;37953;52.806;18.270;2023-11-21T02:18:01;21.05;;;6.25;;
51927;SDS011;37953;52.806;18.270;2023-11-21T02:20:28;23.25;;;6.40;;
51927;SDS011;37953;52.806;18.270;2023-11-21T02:22:55;6.78;;;4.97;;
51927;SDS011;37953;52.806;18.270;2023-11-21T02:27:51;8.15;;;5.07;;
51927;SDS011;37953;52.806;18.270;2023-11-21T02:30:17;9.52;;;5.45;;
51927;SDS011;37953;52.806;18.270;2023-11-21T02:32:44;6.93;;;5.10;;
51927;SDS011;37953;52.806;18.270;2023-11-21T02:35:10;8.27;;;5.68;;
51927;SDS011;37953;52.806;18.270;2023-11-21T02:37:37;13.20;;;5.50;;
51927;SDS011;37953;52.806;18.270;2023-11-21T02:40:10;7.93;;;5.22;;
51927;SDS011;37953;52.806;18.270;2023-11-21T02:42:49;9.05;;;5.68;;
51927;SDS011;37953;52.806;18.270;2023-11-21T02:45:18;11.38;;;5.50;;
51927;SDS011;37953;52.806;18.270;2023-11-21T02:47:47;7.55;;;5.65;;
51927;SDS011;37953;52.806;18.270;2023-11-21T02:50:18;9.07;;;5.97;;
51927;SDS011;37953;52.806;18.270;2023-11-21T02:52:44;8.05;;;5.57;;
51927;SDS011;37953;52.806;18.270;2023-11-21T02:55:16;7.60;;;5.32;;
51927;SDS011;37953;52.806;18.270;2023-11-21T02:57:42;8.70;;;5.90;;
51927;SDS011;37953;52.806;18.270;2023-11-21T03:00:08;9.85;;;5.75;;
51927;SDS011;37953;52.806;18.270;2023-11-21T03:02:38;9.57;;;6.40;;
51927;SDS011;37953;52.806;18.270;2023-11-21T03:05:05;9.02;;;5.65;;
51927;SDS011;37953;52.806;18.270;2023-11-21T03:07:37;9.15;;;5.78;;
51927;SDS011;37953;52.806;18.270;2023-11-21T03:10:03;10.13;;;6.32;;
51927;SDS011;37953;52.806;18.270;2023-11-21T03:12:30;9.38;;;5.82;;
51927;SDS011;37953;52.806;18.270;2023-11-21T03:14:56;12.60;;;6.25;;
51927;SDS011;37953;52.806;18.270;2023-11-21T03:17:21;10.35;;;6.32;;
51927;SDS011;37953;52.806;18.270;2023-11-21T03:19:48;11.88;;;6.25;;
51927;SDS011;37953;52.806;18.270;2023-11-21T03:22:13;12.95;;;6.68;;
51927;SDS011;37953;52.806;18.270;2023-11-21T03:24:39;14.38;;;6.13;;
51927;SDS011;37953;52.806;18.270;2023-11-21T03:27:05;10.43;;;6.72;;
51927;SDS011;37953;52.806;18.270;2023-11-21T03:29:32;9.93;;;6.10;;
51927;SDS011;37953;52.806;18.270;2023-11-21T03:31:57;9.60;;;6.10;;
51927;SDS011;37953;52.806;18.270;2023-11-21T03:34:24;9.63;;;6.20;;
51927;SDS011;37953;52.806;18.270;2023-11-21T03:36:53;10.27;;;6.63;;
51927;SDS011;37953;52.806;18.270;2023-11-21T03:39:20;14.30;;;6.75;;
51927;SDS011;37953;52.806;18.270;2023-11-21T03:41:46;9.88;;;6.60;;
51927;SDS011;37953;52.806;18.270;2023-11-21T03:44:13;10.07;;;6.20;;
51927;SDS011;37953;52.806;18.270;2023-11-21T03:46:39;12.13;;;7.53;;
51927;SDS011;37953;52.806;18.270;2023-11-21T03:49:05;9.77;;;6.68;;
51927;SDS011;37953;52.806;18.270;2023-11-21T03:51:31;10.77;;;6.93;;
51927;SDS011;37953;52.806;18.270;2023-11-21T03:53:57;10.85;;;6.68;;
51927;SDS011;37953;52.806;18.270;2023-11-21T03:56:22;12.57;;;7.65;;
51927;SDS011;37953;52.806;18.270;2023-11-21T03:58:48;11.90;;;6.97;;
51927;SDS011;37953;52.806;18.270;2023-11-21T04:01:21;10.48;;;6.80;;
51927;SDS011;37953;52.806;18.270;2023-11-21T04:03:51;10.68;;;6.30;;
51927;SDS011;37953;52.806;18.270;2023-11-21T04:06:17;10.25;;;6.97;;
51927;SDS011;37953;52.806;18.270;2023-11-21T04:08:44;10.10;;;7.25;;
51927;SDS011;37953;52.806;18.270;2023-11-21T04:11:10;11.38;;;8.10;;
51927;SDS011;37953;52.806;18.270;2023-11-21T04:13:40;15.40;;;10.30;;
51927;SDS011;37953;52.806;18.270;2023-11-21T04:16:06;21.38;;;12.70;;
51927;SDS011;37953;52.806;18.270;2023-11-21T04:18:33;20.90;;;11.95;;
51927;SDS011;37953;52.806;18.270;2023-11-21T04:21:06;19.70;;;10.90;;
51927;SDS011;37953;52.806;18.270;2023-11-21T04:23:38;13.38;;;8.95;;
51927;SDS011;37953;52.806;18.270;2023-11-21T04:26:05;14.52;;;9.38;;
51927;SDS011;37953;52.806;18.270;2023-11-21T04:28:32;14.68;;;8.82;;
51927;SDS011;37953;52.806;18.270;2023-11-21T04:30:58;115.88;;;12.82;;
51927;SDS011;37953;52.806;18.270;2023-11-21T04:33:24;12.77;;;8.25;;
51927;SDS011;37953;52.806;18.270;2023-11-21T04:35:50;12.20;;;7.25;;
51927;SDS011;37953;52.806;18.270;2023-11-21T04:38:17;14.98;;;8.57;;
51927;SDS011;37953;52.806;18.270;2023-11-21T04:40:45;17.00;;;9.52;;
51927;SDS011;37953;52.806;18.270;2023-11-21T04:43:11;14.43;;;8.85;;
51927;SDS011;37953;52.806;18.270;2023-11-21T04:45:37;13.57;;;8.82;;
51927;SDS011;37953;52.806;18.270;2023-11-21T04:48:04;19.58;;;8.45;;
51927;SDS011;37953;52.806;18.270;2023-11-21T04:50:32;11.82;;;7.78;;
51927;SDS011;37953;52.806;18.270;2023-11-21T04:52:58;15.35;;;8.52;;
51927;SDS011;37953;52.806;18.270;2023-11-21T04:55:24;16.60;;;8.27;;
51927;SDS011;37953;52.806;18.270;2023-11-21T04:57:53;14.10;;;9.30;;
51927;SDS011;37953;52.806;18.270;2023-11-21T05:00:19;15.30;;;8.07;;
51927;SDS011;37953;52.806;18.270;2023-11-21T05:02:47;16.73;;;8.10;;
51927;SDS011;37953;52.806;18.270;2023-11-21T05:05:13;11.65;;;7.72;;
51927;SDS011;37953;52.806;18.270;2023-11-21T05:07:40;13.98;;;8.57;;
51927;SDS011;37953;52.806;18.270;2023-11-21T05:10:15;20.33;;;8.60;;
51927;SDS011;37953;52.806;18.270;2023-11-21T05:12:42;13.98;;;8.10;;
51927;SDS011;37953;52.806;18.270;2023-11-21T05:15:08;13.30;;;8.55;;
51927;SDS011;37953;52.806;18.270;2023-11-21T05:17:38;19.55;;;10.85;;
51927;SDS011;37953;52.806;18.270;2023-11-21T05:20:08;20.83;;;11.00;;
51927;SDS011;37953;52.806;18.270;2023-11-21T05:22:36;18.60;;;10.30;;
51927;SDS011;37953;52.806;18.270;2023-11-21T05:25:02;21.48;;;10.70;;
51927;SDS011;37953;52.806;18.270;2023-11-21T05:27:34;21.05;;;11.48;;
51927;SDS011;37953;52.806;18.270;2023-11-21T05:30:06;17.67;;;10.38;;
51927;SDS011;37953;52.806;18.270;2023-11-21T05:32:35;15.90;;;9.40;;
51927;SDS011;37953;52.806;18.270;2023-11-21T05:35:01;15.85;;;9.82;;
51927;SDS011;37953;52.806;18.270;2023-11-21T05:37:27;14.30;;;8.20;;
51927;SDS011;37953;52.806;18.270;2023-11-21T05:39:53;13.00;;;8.32;;
51927;SDS011;37953;52.806;18.270;2023-11-21T05:42:26;13.68;;;8.25;;
51927;SDS011;37953;52.806;18.270;2023-11-21T05:44:52;12.27;;;8.32;;
51927;SDS011;37953;52.806;18.270;2023-11-21T05:47:18;15.65;;;8.82;;
51927;SDS011;37953;52.806;18.270;2023-11-21T05:49:44;13.63;;;8.45;;
51927;SDS011;37953;52.806;18.270;2023-11-21T05:52:11;17.98;;;8.98;;
51927;SDS011;37953;52.806;18.270;2023-11-21T05:54:37;13.70;;;8.88;;
51927;SDS011;37953;52.806;18.270;2023-11-21T05:57:03;13.98;;;8.13;;
51927;SDS011;37953;52.806;18.270;2023-11-21T05:59:29;16.38;;;10.20;;
51927;SDS011;37953;52.806;18.270;2023-11-21T06:01:55;18.52;;;10.70;;
51927;SDS011;37953;52.806;18.270;2023-11-21T06:04:21;15.77;;;9.88;;
51927;SDS011;37953;52.806;18.270;2023-11-21T06:06:50;21.52;;;10.93;;
51927;SDS011;37953;52.806;18.270;2023-11-21T06:09:22;18.95;;;10.38;;
51927;SDS011;37953;52.806;18.270;2023-11-21T06:11:48;18.88;;;10.07;;
51927;SDS011;37953;52.806;18.270;2023-11-21T06:14:14;20.17;;;11.77;;
51927;SDS011;37953;52.806;18.270;2023-11-21T06:16:43;16.63;;;10.23;;
51927;SDS011;37953;52.806;18.270;2023-11-21T06:19:11;18.08;;;10.75;;
51927;SDS011;37953;52.806;18.270;2023-11-21T06:21:37;17.92;;;10.18;;
51927;SDS011;37953;52.806;18.270;2023-11-21T06:24:04;18.08;;;10.80;;
51927;SDS011;37953;52.806;18.270;2023-11-21T06:26:30;17.85;;;10.80;;
51927;SDS011;37953;52.806;18.270;2023-11-21T06:28:57;17.98;;;10.65;;
51927;SDS011;37953;52.806;18.270;2023-11-21T06:31:23;18.85;;;12.05;;
51927;SDS011;37953;52.806;18.270;2023-11-21T06:33:49;19.50;;;10.73;;
51927;SDS011;37953;52.806;18.270;2023-11-21T06:36:20;18.88;;;10.82;;
51927;SDS011;37953;52.806;18.270;2023-11-21T06:38:46;19.55;;;11.15;;
51927;SDS011;37953;52.806;18.270;2023-11-21T06:41:12;18.85;;;10.82;;
51927;SDS011;37953;52.806;18.270;2023-11-21T06:43:41;29.75;;;10.52;;
51927;SDS011;37953;52.806;18.270;2023-11-21T06:46:12;41.80;;;16.38;;
51927;SDS011;37953;52.806;18.270;2023-11-21T06:48:44;29.90;;;12.45;;
51927;SDS011;37953;52.806;18.270;2023-11-21T06:51:10;19.35;;;11.05;;
51927;SDS011;37953;52.806;18.270;2023-11-21T06:53:37;20.92;;;11.35;;
51927;SDS011;37953;52.806;18.270;2023-11-21T06:56:03;20.83;;;10.50;;
51927;SDS011;37953;52.806;18.270;2023-11-21T06:58:29;21.02;;;11.48;;
51927;SDS011;37953;52.806;18.270;2023-11-21T07:00:55;20.90;;;11.27;;
51927;SDS011;37953;52.806;18.270;2023-11-21T07:03:27;19.38;;;11.27;;
51927;SDS011;37953;52.806;18.270;2023-11-21T07:06:06;20.17;;;11.55;;
51927;SDS011;37953;52.806;18.270;2023-11-21T07:08:33;20.63;;;11.25;;
51927;SDS011;37953;52.806;18.270;2023-11-21T07:10:59;21.58;;;10.52;;
51927;SDS011;37953;52.806;18.270;2023-11-21T07:13:25;21.25;;;11.02;;
51927;SDS011;37953;52.806;18.270;2023-11-21T07:15:51;21.40;;;10.57;;
51927;SDS011;37953;52.806;18.270;2023-11-21T07:18:17;19.10;;;10.18;;
51927;SDS011;37953;52.806;18.270;2023-11-21T07:20:44;22.10;;;11.32;;
51927;SDS011;37953;52.806;18.270;2023-11-21T07:23:10;20.80;;;11.35;;
51927;SDS011;37953;52.806;18.270;2023-11-21T07:25:36;19.55;;;11.93;;
51927;SDS011;37953;52.806;18.270;2023-11-21T07:28:02;25.23;;;12.57;;
51927;SDS011;37953;52.806;18.270;2023-11-21T07:30:28;21.27;;;11.15;;
51927;SDS011;37953;52.806;18.270;2023-11-21T07:32:54;21.02;;;11.30;;
51927;SDS011;37953;52.806;18.270;2023-11-21T07:35:23;23.20;;;11.00;;
51927;SDS011;37953;52.806;18.270;2023-11-21T07:37:49;23.90;;;11.20;;
51927;SDS011;37953;52.806;18.270;2023-11-21T07:40:16;23.20;;;10.93;;
51927;SDS011;37953;52.806;18.270;2023-11-21T07:42:42;29.23;;;16.27;;
51927;SDS011;37953;52.806;18.270;2023-11-21T07:45:08;25.38;;;14.00;;
51927;SDS011;37953;52.806;18.270;2023-11-21T07:47:35;23.02;;;12.93;;
51927;SDS011;37953;52.806;18.270;2023-11-21T07:50:04;20.77;;;11.52;;
51927;SDS011;37953;52.806;18.270;2023-11-21T07:52:30;27.08;;;11.70;;
51927;SDS011;37953;52.806;18.270;2023-11-21T07:54:56;25.30;;;12.80;;
51927;SDS011;37953;52.806;18.270;2023-11-21T07:57:22;37.15;;;19.20;;
51927;SDS011;37953;52.806;18.270;2023-11-21T07:59:48;27.25;;;13.27;;
51927;SDS011;37953;52.806;18.270;2023-11-21T08:02:15;26.58;;;12.98;;
51927;SDS011;37953;52.806;18.270;2023-11-21T08:04:43;22.63;;;11.88;;
51927;SDS011;37953;52.806;18.270;2023-11-21T08:07:09;21.98;;;11.23;;
51927;SDS011;37953;52.806;18.270;2023-11-21T08:09:42;22.88;;;10.93;;
51927;SDS011;37953;52.806;18.270;2023-11-21T08:12:09;21.77;;;10.25;;
51927;SDS011;37953;52.806;18.270;2023-11-21T08:14:36;19.50;;;10.60;;
51927;SDS011;37953;52.806;18.270;2023-11-21T08:17:04;19.88;;;10.90;;
51927;SDS011;37953;52.806;18.270;2023-11-21T08:19:30;18.02;;;10.27;;
51927;SDS011;37953;52.806;18.270;2023-11-21T08:21:56;23.33;;;10.27;;
51927;SDS011;37953;52.806;18.270;2023-11-21T08:24:25;21.30;;;10.73;;
51927;SDS011;37953;52.806;18.270;2023-11-21T08:26:50;19.50;;;10.52;;
51927;SDS011;37953;52.806;18.270;2023-11-21T08:29:17;21.45;;;11.27;;
51927;SDS011;37953;52.806;18.270;2023-11-21T08:31:43;21.48;;;10.80;;
51927;SDS011;37953;52.806;18.270;2023-11-21T08:34:12;17.77;;;10.60;;
51927;SDS011;37953;52.806;18.270;2023-11-21T08:36:42;21.00;;;11.45;;
51927;SDS011;37953;52.806;18.270;2023-11-21T08:39:09;21.23;;;11.32;;
51927;SDS011;37953;52.806;18.270;2023-11-21T08:41:35;18.50;;;10.65;;
51927;SDS011;37953;52.806;18.270;2023-11-21T08:44:02;19.27;;;10.52;;
51927;SDS011;37953;52.806;18.270;2023-11-21T08:46:32;23.00;;;12.10;;
51927;SDS011;37953;52.806;18.270;2023-11-21T08:49:02;25.85;;;12.07;;
51927;SDS011;37953;52.806;18.270;2023-11-21T08:51:29;26.90;;;13.82;;
51927;SDS011;37953;52.806;18.270;2023-11-21T08:53:55;22.60;;;11.80;;
51927;SDS011;37953;52.806;18.270;2023-11-21T08:56:35;19.85;;;10.90;;
51927;SDS011;37953;52.806;18.270;2023-11-21T08:59:04;19.52;;;10.77;;
51927;SDS011;37953;52.806;18.270;2023-11-21T09:01:30;61.85;;;26.70;;
51927;SDS011;37953;52.806;18.270;2023-11-21T09:03:57;63.60;;;29.15;;
51927;SDS011;37953;52.806;18.270;2023-11-21T09:06:24;39.15;;;19.17;;
51927;SDS011;37953;52.806;18.270;2023-11-21T09:08:53;28.70;;;13.75;;
51927;SDS011;37953;52.806;18.270;2023-11-21T09:11:19;23.02;;;12.35;;
51927;SDS011;37953;52.806;18.270;2023-11-21T09:13:45;21.08;;;11.20;;
51927;SDS011;37953;52.806;18.270;2023-11-21T09:16:13;20.60;;;11.70;;
51927;SDS011;37953;52.806;18.270;2023-11-21T09:18:41;26.30;;;12.68;;
51927;SDS011;37953;52.806;18.270;2023-11-21T09:21:07;25.02;;;11.55;;
51927;SDS011;37953;52.806;18.270;2023-11-21T09:23:35;27.38;;;12.15;;
51927;SDS011;37953;52.806;18.270;2023-11-21T09:26:01;25.88;;;12.25;;
51927;SDS011;37953;52.806;18.270;2023-11-21T09:28:27;24.63;;;12.15;;
51927;SDS011;37953;52.806;18.270;2023-11-21T09:30:53;25.92;;;11.90;;
51927;SDS011;37953;52.806;18.270;2023-11-21T09:33:19;25.17;;;12.52;;
51927;SDS011;37953;52.806;18.270;2023-11-21T09:35:47;27.60;;;12.23;;
51927;SDS011;37953;52.806;18.270;2023-11-21T09:38:15;24.45;;;11.88;;
51927;SDS011;37953;52.806;18.270;2023-11-21T09:40:41;25.85;;;11.13;;
51927;SDS011;37953;52.806;18.270;2023-11-21T09:43:15;26.23;;;11.40;;
51927;SDS011;37953;52.806;18.270;2023-11-21T09:48:25;23.77;;;11.70;;
51927;SDS011;37953;52.806;18.270;2023-11-21T09:50:51;25.70;;;12.40;;
51927;SDS011;37953;52.806;18.270;2023-11-21T09:53:25;27.45;;;12.20;;
51927;SDS011;37953;52.806;18.270;2023-11-21T09:55:55;26.10;;;12.03;;
51927;SDS011;37953;52.806;18.270;2023-11-21T09:58:22;29.77;;;13.23;;
51927;SDS011;37953;52.806;18.270;2023-11-21T10:00:52;24.83;;;12.10;;
51927;SDS011;37953;52.806;18.270;2023-11-21T10:03:19;26.88;;;12.70;;
51927;SDS011;37953;52.806;18.270;2023-11-21T10:05:45;24.95;;;11.18;;
51927;SDS011;37953;52.806;18.270;2023-11-21T10:08:16;23.67;;;11.77;;
51927;SDS011;37953;52.806;18.270;2023-11-21T10:10:45;25.58;;;11.82;;
51927;SDS011;37953;52.806;18.270;2023-11-21T10:13:17;25.05;;;11.85;;
51927;SDS011;37953;52.806;18.270;2023-11-21T10:15:47;27.98;;;13.93;;
51927;SDS011;37953;52.806;18.270;2023-11-21T10:20:52;26.02;;;12.93;;
51927;SDS011;37953;52.806;18.270;2023-11-21T10:23:21;24.63;;;11.48;;
51927;SDS011;37953;52.806;18.270;2023-11-21T10:25:47;22.98;;;11.93;;
51927;SDS011;37953;52.806;18.270;2023-11-21T10:28:15;26.15;;;12.75;;
51927;SDS011;37953;52.806;18.270;2023-11-21T10:30:41;26.50;;;12.35;;
51927;SDS011;37953;52.806;18.270;2023-11-21T10:33:07;24.17;;;11.93;;
51927;SDS011;37953;52.806;18.270;2023-11-21T10:35:42;23.95;;;12.23;;
51927;SDS011;37953;52.806;18.270;2023-11-21T10:38:27;24.67;;;12.43;;
51927;SDS011;37953;52.806;18.270;2023-11-21T10:40:59;27.27;;;12.00;;
51927;SDS011;37953;52.806;18.270;2023-11-21T10:43:25;24.13;;;11.77;;
51927;SDS011;37953;52.806;18.270;2023-11-21T10:45:52;28.73;;;11.70;;
51927;SDS011;37953;52.806;18.270;2023-11-21T10:48:18;25.08;;;12.70;;
51927;SDS011;37953;52.806;18.270;2023-11-21T10:50:46;24.85;;;11.10;;
51927;SDS011;37953;52.806;18.270;2023-11-21T10:53:15;24.13;;;12.07;;
51927;SDS011;37953;52.806;18.270;2023-11-21T10:55:41;24.95;;;12.38;;
51927;SDS011;37953;52.806;18.270;2023-11-21T10:58:10;22.20;;;11.63;;
51927;SDS011;37953;52.806;18.270;2023-11-21T11:00:39;22.08;;;11.27;;
51927;SDS011;37953;52.806;18.270;2023-11-21T11:03:06;21.85;;;11.20;;
51927;SDS011;37953;52.806;18.270;2023-11-21T11:05:42;23.38;;;11.75;;
51927;SDS011;37953;52.806;18.270;2023-11-21T11:08:16;23.00;;;11.07;;
51927;SDS011;37953;52.806;18.270;2023-11-21T11:10:46;20.88;;;10.85;;
51927;SDS011;37953;52.806;18.270;2023-11-21T11:13:16;22.92;;;11.00;;
51927;SDS011;37953;52.806;18.270;2023-11-21T11:15:42;24.10;;;11.52;;
51927;SDS011;37953;52.806;18.270;2023-11-21T11:18:15;20.67;;;11.15;;
51927;SDS011;37953;52.806;18.270;2023-11-21T11:20:42;22.52;;;11.05;;
51927;SDS011;37953;52.806;18.270;2023-11-21T11:28:43;21.83;;;11.18;;
51927;SDS011;37953;52.806;18.270;2023-11-21T11:34:04;22.13;;;10.93;;
51927;SDS011;37953;52.806;18.270;2023-11-21T11:36:48;24.35;;;11.68;;
51927;SDS011;37953;52.806;18.270;2023-11-21T11:39:31;25.75;;;12.07;;
51927;SDS011;37953;52.806;18.270;2023-11-21T11:42:03;24.63;;;11.05;;
51927;SDS011;37953;52.806;18.270;2023-11-21T11:47:26;28.20;;;13.30;;
51927;SDS011;37953;52.806;18.270;2023-11-21T11:50:12;30.38;;;14.57;;
51927;SDS011;37953;52.806;18.270;2023-11-21T11:55:17;31.38;;;14.00;;
51927;SDS011;37953;52.806;18.270;2023-11-21T11:57:44;26.55;;;11.90;;
51927;SDS011;37953;52.806;18.270;2023-11-21T12:00:17;30.35;;;13.68;;
51927;SDS011;37953;52.806;18.270;2023-11-21T12:02:51;27.30;;;12.95;;
51927;SDS011;37953;52.806;18.270;2023-11-21T12:05:19;22.30;;;11.30;;
51927;SDS011;37953;52.806;18.270;2023-11-21T12:07:47;25.52;;;12.52;;
51927;SDS011;37953;52.806;18.270;2023-11-21T12:10:44;23.67;;;11.40;;
51927;SDS011;37953;52.806;18.270;2023-11-21T12:13:10;19.45;;;10.60;;
51927;SDS011;37953;52.806;18.270;2023-11-21T12:15:40;21.92;;;11.00;;
51927;SDS011;37953;52.806;18.270;2023-11-21T12:18:07;22.58;;;11.18;;
51927;SDS011;37953;52.806;18.270;2023-11-21T12:20:33;20.35;;;10.25;;
51927;SDS011;37953;52.806;18.270;2023-11-21T12:23:04;24.77;;;11.52;;
51927;SDS011;37953;52.806;18.270;2023-11-21T12:25:31;21.65;;;11.00;;
51927;SDS011;37953;52.806;18.270;2023-11-21T12:27:58;23.48;;;11.63;;
51927;SDS011;37953;52.806;18.270;2023-11-21T12:30:26;21.80;;;10.73;;
51927;SDS011;37953;52.806;18.270;2023-11-21T12:33:03;23.88;;;10.73;;
51927;SDS011;37953;52.806;18.270;2023-11-21T12:35:31;24.33;;;11.13;;
51927;SDS011;37953;52.806;18.270;2023-11-21T12:38:03;19.38;;;9.60;;
51927;SDS011;37953;52.806;18.270;2023-11-21T12:40:30;17.98;;;9.93;;
51927;SDS011;37953;52.806;18.270;2023-11-21T12:42:57;22.75;;;12.88;;
51927;SDS011;37953;52.806;18.270;2023-11-21T12:45:26;26.38;;;13.43;;
51927;SDS011;37953;52.806;18.270;2023-11-21T12:50:48;22.35;;;11.57;;
51927;SDS011;37953;52.806;18.270;2023-11-21T12:53:28;22.23;;;10.82;;
51927;SDS011;37953;52.806;18.270;2023-11-21T12:56:05;24.42;;;11.70;;
51927;SDS011;37953;52.806;18.270;2023-11-21T12:58:35;23.65;;;11.27;;
51927;SDS011;37953;52.806;18.270;2023-11-21T13:01:01;23.30;;;12.02;;
51927;SDS011;37953;52.806;18.270;2023-11-21T13:03:30;21.98;;;11.50;;
51927;SDS011;37953;52.806;18.270;2023-11-21T13:05:58;22.77;;;10.70;;
51927;SDS011;37953;52.806;18.270;2023-11-21T13:08:30;20.20;;;10.30;;
51927;SDS011;37953;52.806;18.270;2023-11-21T13:10:58;23.02;;;10.45;;
51927;SDS011;37953;52.806;18.270;2023-11-21T13:13:25;24.42;;;11.20;;
51927;SDS011;37953;52.806;18.270;2023-11-21T13:15:55;22.88;;;11.88;;
51927;SDS011;37953;52.806;18.270;2023-11-21T13:18:25;22.40;;;10.85;;
51927;SDS011;37953;52.806;18.270;2023-11-21T13:20:55;25.67;;;11.48;;
51927;SDS011;37953;52.806;18.270;2023-11-21T13:23:23;23.92;;;10.70;;
51927;SDS011;37953;52.806;18.270;2023-11-21T13:25:50;24.42;;;11.50;;
51927;SDS011;37953;52.806;18.270;2023-11-21T13:28:23;20.52;;;9.88;;
51927;SDS011;37953;52.806;18.270;2023-11-21T13:30:52;19.38;;;9.98;;
51927;SDS011;37953;52.806;18.270;2023-11-21T13:33:18;22.67;;;10.05;;
51927;SDS011;37953;52.806;18.270;2023-11-21T13:35:47;23.67;;;11.30;;
51927;SDS011;37953;52.806;18.270;2023-11-21T13:38:15;23.67;;;11.15;;
51927;SDS011;37953;52.806;18.270;2023-11-21T13:40:46;22.80;;;11.23;;
51927;SDS011;37953;52.806;18.270;2023-11-21T13:43:16;21.73;;;10.82;;
51927;SDS011;37953;52.806;18.270;2023-11-21T13:45:48;24.13;;;11.82;;
51927;SDS011;37953;52.806;18.270;2023-11-21T13:48:23;19.85;;;10.43;;
51927;SDS011;37953;52.806;18.270;2023-11-21T13:51:04;23.25;;;10.60;;
51927;SDS011;37953;52.806;18.270;2023-11-21T13:53:49;22.08;;;10.35;;
51927;SDS011;37953;52.806;18.270;2023-11-21T13:56:18;21.20;;;9.95;;
51927;SDS011;37953;52.806;18.270;2023-11-21T13:58:49;21.25;;;9.95;;
51927;SDS011;37953;52.806;18.270;2023-11-21T14:01:23;18.58;;;9.27;;
51927;SDS011;37953;52.806;18.270;2023-11-21T14:04:00;17.48;;;9.20;;
51927;SDS011;37953;52.806;18.270;2023-11-21T14:06:42;17.38;;;8.95;;
51927;SDS011;37953;52.806;18.270;2023-11-21T14:09:15;19.50;;;10.02;;
51927;SDS011;37953;52.806;18.270;2023-11-21T14:11:58;22.10;;;9.05;;
51927;SDS011;37953;52.806;18.270;2023-11-21T14:14:26;17.88;;;9.52;;
51927;SDS011;37953;52.806;18.270;2023-11-21T14:17:01;19.10;;;9.63;;
51927;SDS011;37953;52.806;18.270;2023-11-21T14:19:32;19.83;;;9.73;;
51927;SDS011;37953;52.806;18.270;2023-11-21T14:21:59;21.92;;;9.35;;
51927;SDS011;37953;52.806;18.270;2023-11-21T14:24:34;17.13;;;9.13;;
51927;SDS011;37953;52.806;18.270;2023-11-21T14:27:00;17.98;;;9.18;;
51927;SDS011;37953;52.806;18.270;2023-11-21T14:29:26;20.15;;;9.05;;
51927;SDS011;37953;52.806;18.270;2023-11-21T14:31:53;15.68;;;8.55;;
51927;SDS011;37953;52.806;18.270;2023-11-21T14:34:22;17.50;;;9.43;;
51927;SDS011;37953;52.806;18.270;2023-11-21T14:36:49;20.00;;;9.38;;
51927;SDS011;37953;52.806;18.270;2023-11-21T14:39:16;17.77;;;8.40;;
51927;SDS011;37953;52.806;18.270;2023-11-21T14:41:49;22.38;;;8.73;;
51927;SDS011;37953;52.806;18.270;2023-11-21T14:44:16;14.63;;;7.60;;
51927;SDS011;37953;52.806;18.270;2023-11-21T14:46:42;18.00;;;8.60;;